sensor_id;sensor_type;location;lat;lon;timestamp;temperature;humidity
19906;DHT22;10115;50.906;4.438;2022-11-03T00:01:57;13.30;99.90
19906;DHT22;10115;50.906;4.438;2022-11-03T00:04:23;13.20;99.90
19906;DHT22;10115;50.906;4.438;2022-11-03T00:06:50;13.30;99.90
19906;DHT22;10115;50.906;4.438;2022-11-03T00:09:17;13.30;99.90
19906;DHT22;10115;50.906;4.438;2022-11-03T00:11:45;13.20;99.90
19906;DHT22;10115;50.906;4.438;2022-11-03T00:14:12;13.10;99.90
19906;DHT22;10115;50.906;4.438;2022-11-03T00:16:39;12.90;99.90
19906;DHT22;10115;50.906;4.438;2022-11-03T00:19:06;12.90;99.90
19906;DHT22;10115;50.906;4.438;2022-11-03T00:21:32;12.90;99.90
19906;DHT22;10115;50.906;4.438;2022-11-03T00:23:58;13.00;99.90
19906;DHT22;10115;50.906;4.438;2022-11-03T00:26:25;13.20;99.90
19906;DHT22;10115;50.906;4.438;2022-11-03T00:28:54;12.90;99.90
19906;DHT22;10115;50.906;4.438;2022-11-03T00:31:25;12.80;99.90
19906;DHT22;10115;50.906;4.438;2022-11-03T00:33:51;12.80;99.90
19906;DHT22;10115;50.906;4.438;2022-11-03T00:36:20;12.80;99.90
19906;DHT22;10115;50.906;4.438;2022-11-03T00:38:46;12.70;99.90
19906;DHT22;10115;50.906;4.438;2022-11-03T00:41:12;12.70;99.90
19906;DHT22;10115;50.906;4.438;2022-11-03T00:43:39;12.60;99.90
19906;DHT22;10115;50.906;4.438;2022-11-03T00:46:07;12.60;99.90
19906;DHT22;10115;50.906;4.438;2022-11-03T00:48:34;12.70;99.90
19906;DHT22;10115;50.906;4.438;2022-11-03T00:53:34;12.80;99.90
19906;DHT22;10115;50.906;4.438;2022-11-03T00:56:00;12.70;99.90
19906;DHT22;10115;50.906;4.438;2022-11-03T00:58:26;12.70;99.90
19906;DHT22;10115;50.906;4.438;2022-11-03T01:03:25;12.80;99.90
19906;DHT22;10115;50.906;4.438;2022-11-03T01:05:51;12.70;99.90
19906;DHT22;10115;50.906;4.438;2022-11-03T01:08:36;12.60;99.90
19906;DHT22;10115;50.906;4.438;2022-11-03T01:11:13;12.60;99.90
19906;DHT22;10115;50.906;4.438;2022-11-03T01:13:58;12.60;99.90
19906;DHT22;10115;50.906;4.438;2022-11-03T01:16:24;12.50;99.90
19906;DHT22;10115;50.906;4.438;2022-11-03T01:18:50;12.60;99.90
19906;DHT22;10115;50.906;4.438;2022-11-03T01:21:16;12.70;99.90
19906;DHT22;10115;50.906;4.438;2022-11-03T01:23:41;12.90;99.90
19906;DHT22;10115;50.906;4.438;2022-11-03T01:26:09;12.90;99.90
19906;DHT22;10115;50.906;4.438;2022-11-03T01:28:36;12.80;99.90
19906;DHT22;10115;50.906;4.438;2022-11-03T01:31:07;12.80;99.90
19906;DHT22;10115;50.906;4.438;2022-11-03T01:33:33;12.80;99.90
19906;DHT22;10115;50.906;4.438;2022-11-03T01:35:59;12.80;99.90
19906;DHT22;10115;50.906;4.438;2022-11-03T01:38:25;12.90;99.90
19906;DHT22;10115;50.906;4.438;2022-11-03T01:40:50;12.90;99.90
19906;DHT22;10115;50.906;4.438;2022-11-03T01:43:18;12.70;99.90
19906;DHT22;10115;50.906;4.438;2022-11-03T01:45:46;12.70;99.90
19906;DHT22;10115;50.906;4.438;2022-11-03T01:48:15;12.80;99.90
19906;DHT22;10115;50.906;4.438;2022-11-03T01:50:42;13.00;99.90
19906;DHT22;10115;50.906;4.438;2022-11-03T01:53:10;13.00;99.90
19906;DHT22;10115;50.906;4.438;2022-11-03T01:55:37;13.00;99.90
19906;DHT22;10115;50.906;4.438;2022-11-03T01:58:18;13.10;99.90
19906;DHT22;10115;50.906;4.438;2022-11-03T02:00:47;13.20;99.90
19906;DHT22;10115;50.906;4.438;2022-11-03T02:03:14;13.30;99.90
19906;DHT22;10115;50.906;4.438;2022-11-03T02:05:42;13.40;99.90
19906;DHT22;10115;50.906;4.438;2022-11-03T02:08:27;13.30;99.90
19906;DHT22;10115;50.906;4.438;2022-11-03T02:10:56;13.30;99.90
19906;DHT22;10115;50.906;4.438;2022-11-03T02:13:24;13.30;99.90
19906;DHT22;10115;50.906;4.438;2022-11-03T02:15:54;13.30;99.90
19906;DHT22;10115;50.906;4.438;2022-11-03T02:18:28;13.30;99.90
19906;DHT22;10115;50.906;4.438;2022-11-03T02:21:13;13.30;99.90
19906;DHT22;10115;50.906;4.438;2022-11-03T02:23:51;13.40;99.90
19906;DHT22;10115;50.906;4.438;2022-11-03T02:26:20;13.50;99.90
19906;DHT22;10115;50.906;4.438;2022-11-03T02:28:46;13.40;99.90
19906;DHT22;10115;50.906;4.438;2022-11-03T02:31:25;13.40;99.90
19906;DHT22;10115;50.906;4.438;2022-11-03T02:34:11;13.50;99.90
19906;DHT22;10115;50.906;4.438;2022-11-03T02:36:40;13.40;99.90
19906;DHT22;10115;50.906;4.438;2022-11-03T02:41:52;13.40;99.90
19906;DHT22;10115;50.906;4.438;2022-11-03T02:44:20;13.50;99.90
19906;DHT22;10115;50.906;4.438;2022-11-03T02:46:49;13.50;99.90
19906;DHT22;10115;50.906;4.438;2022-11-03T02:49:17;13.50;99.90
19906;DHT22;10115;50.906;4.438;2022-11-03T02:51:42;13.50;99.90
19906;DHT22;10115;50.906;4.438;2022-11-03T02:54:22;13.40;99.90
19906;DHT22;10115;50.906;4.438;2022-11-03T02:57:01;13.40;99.90
19906;DHT22;10115;50.906;4.438;2022-11-03T02:59:38;13.40;99.90
19906;DHT22;10115;50.906;4.438;2022-11-03T03:02:09;13.40;99.90
19906;DHT22;10115;50.906;4.438;2022-11-03T03:04:43;13.40;99.90
19906;DHT22;10115;50.906;4.438;2022-11-03T03:07:42;13.40;99.90
19906;DHT22;10115;50.906;4.438;2022-11-03T03:10:18;13.40;99.90
19906;DHT22;10115;50.906;4.438;2022-11-03T03:12:48;13.40;99.90
19906;DHT22;10115;50.906;4.438;2022-11-03T03:15:16;13.40;99.90
19906;DHT22;10115;50.906;4.438;2022-11-03T03:17:53;13.40;99.90
19906;DHT22;10115;50.906;4.438;2022-11-03T03:20:25;13.40;99.90
19906;DHT22;10115;50.906;4.438;2022-11-03T03:22:56;13.30;99.90
19906;DHT22;10115;50.906;4.438;2022-11-03T03:25:33;13.20;99.90
19906;DHT22;10115;50.906;4.438;2022-11-03T03:28:09;13.20;99.90
19906;DHT22;10115;50.906;4.438;2022-11-03T03:30:36;13.20;99.90
19906;DHT22;10115;50.906;4.438;2022-11-03T03:33:04;13.20;99.90
19906;DHT22;10115;50.906;4.438;2022-11-03T03:35:32;13.20;99.90
19906;DHT22;10115;50.906;4.438;2022-11-03T03:38:13;13.30;99.90
19906;DHT22;10115;50.906;4.438;2022-11-03T03:40:41;13.30;99.90
19906;DHT22;10115;50.906;4.438;2022-11-03T03:43:10;13.20;99.90
19906;DHT22;10115;50.906;4.438;2022-11-03T03:45:37;13.30;99.90
19906;DHT22;10115;50.906;4.438;2022-11-03T03:48:04;13.20;99.90
19906;DHT22;10115;50.906;4.438;2022-11-03T03:50:34;13.20;99.90
19906;DHT22;10115;50.906;4.438;2022-11-03T03:53:06;13.20;99.90
19906;DHT22;10115;50.906;4.438;2022-11-03T03:55:39;13.30;99.90
19906;DHT22;10115;50.906;4.438;2022-11-03T03:58:06;13.20;99.90
19906;DHT22;10115;50.906;4.438;2022-11-03T04:00:32;13.20;99.90
19906;DHT22;10115;50.906;4.438;2022-11-03T04:02:58;13.20;99.90
19906;DHT22;10115;50.906;4.438;2022-11-03T04:05:25;13.20;99.90
19906;DHT22;10115;50.906;4.438;2022-11-03T04:07:51;13.20;99.90
19906;DHT22;10115;50.906;4.438;2022-11-03T04:10:19;13.20;99.90
19906;DHT22;10115;50.906;4.438;2022-11-03T04:12:45;13.10;99.90
19906;DHT22;10115;50.906;4.438;2022-11-03T04:15:30;13.00;99.90
19906;DHT22;10115;50.906;4.438;2022-11-03T04:18:15;13.10;99.90
19906;DHT22;10115;50.906;4.438;2022-11-03T04:21:13;13.10;99.90
19906;DHT22;10115;50.906;4.438;2022-11-03T04:23:58;13.00;99.90
19906;DHT22;10115;50.906;4.438;2022-11-03T04:26:26;13.00;99.90
19906;DHT22;10115;50.906;4.438;2022-11-03T04:28:52;13.00;99.90
19906;DHT22;10115;50.906;4.438;2022-11-03T04:31:19;13.00;99.90
19906;DHT22;10115;50.906;4.438;2022-11-03T04:33:45;13.00;99.90
19906;DHT22;10115;50.906;4.438;2022-11-03T04:36:19;13.10;99.90
19906;DHT22;10115;50.906;4.438;2022-11-03T04:38:45;13.20;99.90
19906;DHT22;10115;50.906;4.438;2022-11-03T04:41:20;13.20;99.90
19906;DHT22;10115;50.906;4.438;2022-11-03T04:43:47;13.20;99.90
19906;DHT22;10115;50.906;4.438;2022-11-03T04:46:27;13.10;99.90
19906;DHT22;10115;50.906;4.438;2022-11-03T04:48:54;13.10;99.90
19906;DHT22;10115;50.906;4.438;2022-11-03T04:51:24;13.10;99.90
19906;DHT22;10115;50.906;4.438;2022-11-03T04:53:57;13.10;99.90
19906;DHT22;10115;50.906;4.438;2022-11-03T04:56:24;13.10;99.90
19906;DHT22;10115;50.906;4.438;2022-11-03T04:58:51;13.20;99.90
19906;DHT22;10115;50.906;4.438;2022-11-03T05:01:19;13.20;99.90
19906;DHT22;10115;50.906;4.438;2022-11-03T05:03:48;13.20;99.90
19906;DHT22;10115;50.906;4.438;2022-11-03T05:08:44;13.20;99.90
19906;DHT22;10115;50.906;4.438;2022-11-03T05:11:26;13.20;99.90
19906;DHT22;10115;50.906;4.438;2022-11-03T05:13:53;13.20;99.90
19906;DHT22;10115;50.906;4.438;2022-11-03T05:16:21;13.20;99.90
19906;DHT22;10115;50.906;4.438;2022-11-03T05:18:49;13.20;99.90
19906;DHT22;10115;50.906;4.438;2022-11-03T05:21:18;13.30;99.90
19906;DHT22;10115;50.906;4.438;2022-11-03T05:23:58;13.30;99.90
19906;DHT22;10115;50.906;4.438;2022-11-03T05:26:28;13.20;99.90
19906;DHT22;10115;50.906;4.438;2022-11-03T05:29:23;13.20;99.90
19906;DHT22;10115;50.906;4.438;2022-11-03T05:31:52;13.20;99.90
19906;DHT22;10115;50.906;4.438;2022-11-03T05:34:40;13.20;99.90
19906;DHT22;10115;50.906;4.438;2022-11-03T05:39:50;13.20;99.90
19906;DHT22;10115;50.906;4.438;2022-11-03T05:44:49;13.30;99.90
19906;DHT22;10115;50.906;4.438;2022-11-03T05:47:45;13.30;99.90
19906;DHT22;10115;50.906;4.438;2022-11-03T05:50:48;13.30;99.90
19906;DHT22;10115;50.906;4.438;2022-11-03T05:53:58;13.20;99.90
19906;DHT22;10115;50.906;4.438;2022-11-03T05:56:01;13.20;99.90
19906;DHT22;10115;50.906;4.438;2022-11-03T06:00:53;13.30;99.90
19906;DHT22;10115;50.906;4.438;2022-11-03T06:03:25;13.40;99.90
19906;DHT22;10115;50.906;4.438;2022-11-03T06:05:52;13.30;99.90
19906;DHT22;10115;50.906;4.438;2022-11-03T06:08:20;13.30;99.90
19906;DHT22;10115;50.906;4.438;2022-11-03T06:10:49;13.20;99.90
19906;DHT22;10115;50.906;4.438;2022-11-03T06:15:46;13.00;99.90
19906;DHT22;10115;50.906;4.438;2022-11-03T06:18:20;13.10;99.90
19906;DHT22;10115;50.906;4.438;2022-11-03T06:20:53;13.00;99.90
19906;DHT22;10115;50.906;4.438;2022-11-03T06:23:21;13.10;99.90
19906;DHT22;10115;50.906;4.438;2022-11-03T06:25:48;13.00;99.90
19906;DHT22;10115;50.906;4.438;2022-11-03T06:28:35;13.10;99.90
19906;DHT22;10115;50.906;4.438;2022-11-03T06:31:17;13.10;99.90
19906;DHT22;10115;50.906;4.438;2022-11-03T06:33:43;13.00;99.90
19906;DHT22;10115;50.906;4.438;2022-11-03T06:36:22;13.00;99.90
19906;DHT22;10115;50.906;4.438;2022-11-03T06:38:59;13.00;99.90
19906;DHT22;10115;50.906;4.438;2022-11-03T06:41:27;13.00;99.90
19906;DHT22;10115;50.906;4.438;2022-11-03T06:43:54;13.00;99.90
19906;DHT22;10115;50.906;4.438;2022-11-03T06:46:22;13.10;99.90
19906;DHT22;10115;50.906;4.438;2022-11-03T06:48:50;13.10;99.90
19906;DHT22;10115;50.906;4.438;2022-11-03T06:51:27;13.10;99.90
19906;DHT22;10115;50.906;4.438;2022-11-03T06:53:56;13.10;99.90
19906;DHT22;10115;50.906;4.438;2022-11-03T06:56:28;13.10;99.90
19906;DHT22;10115;50.906;4.438;2022-11-03T06:58:56;13.20;99.90
19906;DHT22;10115;50.906;4.438;2022-11-03T07:01:29;13.40;99.90
19906;DHT22;10115;50.906;4.438;2022-11-03T07:04:21;13.40;99.90
19906;DHT22;10115;50.906;4.438;2022-11-03T07:06:46;13.30;99.90
19906;DHT22;10115;50.906;4.438;2022-11-03T07:09:20;13.30;99.90
19906;DHT22;10115;50.906;4.438;2022-11-03T07:11:49;13.30;99.90
19906;DHT22;10115;50.906;4.438;2022-11-03T07:14:26;13.20;99.90
19906;DHT22;10115;50.906;4.438;2022-11-03T07:17:01;13.20;99.90
19906;DHT22;10115;50.906;4.438;2022-11-03T07:19:36;13.20;99.90
19906;DHT22;10115;50.906;4.438;2022-11-03T07:22:15;13.10;99.90
19906;DHT22;10115;50.906;4.438;2022-11-03T07:24:45;13.10;99.90
19906;DHT22;10115;50.906;4.438;2022-11-03T07:27:25;13.00;99.90
19906;DHT22;10115;50.906;4.438;2022-11-03T07:29:56;13.00;99.90
19906;DHT22;10115;50.906;4.438;2022-11-03T07:32:28;13.00;99.90
19906;DHT22;10115;50.906;4.438;2022-11-03T07:35:05;13.00;99.90
19906;DHT22;10115;50.906;4.438;2022-11-03T07:37:37;13.10;99.90
19906;DHT22;10115;50.906;4.438;2022-11-03T07:40:04;13.10;99.90
19906;DHT22;10115;50.906;4.438;2022-11-03T07:42:31;13.10;99.90
19906;DHT22;10115;50.906;4.438;2022-11-03T07:44:57;13.00;99.90
19906;DHT22;10115;50.906;4.438;2022-11-03T07:47:24;13.00;99.90
19906;DHT22;10115;50.906;4.438;2022-11-03T07:49:50;13.00;99.90
19906;DHT22;10115;50.906;4.438;2022-11-03T07:52:22;13.00;99.90
19906;DHT22;10115;50.906;4.438;2022-11-03T07:54:50;13.10;99.90
19906;DHT22;10115;50.906;4.438;2022-11-03T07:57:27;13.00;99.90
19906;DHT22;10115;50.906;4.438;2022-11-03T08:00:00;13.00;99.90
19906;DHT22;10115;50.906;4.438;2022-11-03T08:02:48;13.00;99.90
19906;DHT22;10115;50.906;4.438;2022-11-03T08:05:15;13.10;99.90
19906;DHT22;10115;50.906;4.438;2022-11-03T08:07:41;13.10;99.90
19906;DHT22;10115;50.906;4.438;2022-11-03T08:10:07;13.10;99.90
19906;DHT22;10115;50.906;4.438;2022-11-03T08:12:33;13.10;99.90
19906;DHT22;10115;50.906;4.438;2022-11-03T08:14:58;13.10;99.90
19906;DHT22;10115;50.906;4.438;2022-11-03T08:17:24;13.10;99.90
19906;DHT22;10115;50.906;4.438;2022-11-03T08:19:50;13.10;99.90
19906;DHT22;10115;50.906;4.438;2022-11-03T08:22:16;13.10;99.90
19906;DHT22;10115;50.906;4.438;2022-11-03T08:24:42;13.20;99.90
19906;DHT22;10115;50.906;4.438;2022-11-03T08:27:07;13.20;99.90
19906;DHT22;10115;50.906;4.438;2022-11-03T08:29:33;13.20;99.90
19906;DHT22;10115;50.906;4.438;2022-11-03T08:31:58;13.30;99.90
19906;DHT22;10115;50.906;4.438;2022-11-03T08:34:24;13.20;99.90
19906;DHT22;10115;50.906;4.438;2022-11-03T08:36:50;13.20;99.90
19906;DHT22;10115;50.906;4.438;2022-11-03T08:39:15;13.10;99.90
19906;DHT22;10115;50.906;4.438;2022-11-03T08:41:41;13.20;99.90
19906;DHT22;10115;50.906;4.438;2022-11-03T08:44:07;13.20;99.90
19906;DHT22;10115;50.906;4.438;2022-11-03T08:46:32;13.20;99.90
19906;DHT22;10115;50.906;4.438;2022-11-03T08:48:58;13.00;99.90
19906;DHT22;10115;50.906;4.438;2022-11-03T08:51:24;13.00;99.90
19906;DHT22;10115;50.906;4.438;2022-11-03T08:53:49;13.10;99.90
19906;DHT22;10115;50.906;4.438;2022-11-03T08:56:18;13.20;99.90
19906;DHT22;10115;50.906;4.438;2022-11-03T08:58:45;13.20;99.90
19906;DHT22;10115;50.906;4.438;2022-11-03T09:01:11;13.10;99.90
19906;DHT22;10115;50.906;4.438;2022-11-03T09:03:38;13.10;99.90
19906;DHT22;10115;50.906;4.438;2022-11-03T09:06:04;13.10;99.90
19906;DHT22;10115;50.906;4.438;2022-11-03T09:08:30;13.00;99.90
19906;DHT22;10115;50.906;4.438;2022-11-03T09:10:55;13.00;99.90
19906;DHT22;10115;50.906;4.438;2022-11-03T09:13:21;13.10;99.90
19906;DHT22;10115;50.906;4.438;2022-11-03T09:15:47;13.10;99.90
19906;DHT22;10115;50.906;4.438;2022-11-03T09:18:12;13.10;99.90
19906;DHT22;10115;50.906;4.438;2022-11-03T09:20:38;13.10;99.90
19906;DHT22;10115;50.906;4.438;2022-11-03T09:23:04;13.20;99.90
19906;DHT22;10115;50.906;4.438;2022-11-03T09:25:29;13.10;99.90
19906;DHT22;10115;50.906;4.438;2022-11-03T09:27:55;13.30;99.90
19906;DHT22;10115;50.906;4.438;2022-11-03T09:30:21;13.40;99.90
19906;DHT22;10115;50.906;4.438;2022-11-03T09:32:46;13.50;99.90
19906;DHT22;10115;50.906;4.438;2022-11-03T09:35:13;13.60;99.90
19906;DHT22;10115;50.906;4.438;2022-11-03T09:37:42;13.70;99.90
19906;DHT22;10115;50.906;4.438;2022-11-03T09:40:09;13.80;99.90
19906;DHT22;10115;50.906;4.438;2022-11-03T09:42:36;13.80;99.90
19906;DHT22;10115;50.906;4.438;2022-11-03T09:45:03;13.80;99.90
19906;DHT22;10115;50.906;4.438;2022-11-03T09:47:34;13.90;99.90
19906;DHT22;10115;50.906;4.438;2022-11-03T09:50:01;14.10;99.90
19906;DHT22;10115;50.906;4.438;2022-11-03T09:52:27;14.30;99.90
19906;DHT22;10115;50.906;4.438;2022-11-03T09:54:53;14.30;99.90
19906;DHT22;10115;50.906;4.438;2022-11-03T09:57:26;14.40;99.90
19906;DHT22;10115;50.906;4.438;2022-11-03T09:59:52;14.50;99.90
19906;DHT22;10115;50.906;4.438;2022-11-03T10:02:26;14.50;99.90
19906;DHT22;10115;50.906;4.438;2022-11-03T10:04:53;14.50;99.90
19906;DHT22;10115;50.906;4.438;2022-11-03T10:07:20;14.70;99.90
19906;DHT22;10115;50.906;4.438;2022-11-03T10:09:48;14.70;99.90
19906;DHT22;10115;50.906;4.438;2022-11-03T10:12:15;14.70;99.90
19906;DHT22;10115;50.906;4.438;2022-11-03T10:14:43;14.80;99.90
19906;DHT22;10115;50.906;4.438;2022-11-03T10:17:15;14.90;99.90
19906;DHT22;10115;50.906;4.438;2022-11-03T10:19:41;14.90;99.90
19906;DHT22;10115;50.906;4.438;2022-11-03T10:22:08;14.80;99.90
19906;DHT22;10115;50.906;4.438;2022-11-03T10:24:34;14.80;99.90
19906;DHT22;10115;50.906;4.438;2022-11-03T10:27:00;14.70;99.90
19906;DHT22;10115;50.906;4.438;2022-11-03T10:29:26;14.50;99.90
19906;DHT22;10115;50.906;4.438;2022-11-03T10:31:57;14.50;99.90
19906;DHT22;10115;50.906;4.438;2022-11-03T10:37:17;14.60;99.90
19906;DHT22;10115;50.906;4.438;2022-11-03T10:39:45;14.70;99.90
19906;DHT22;10115;50.906;4.438;2022-11-03T10:44:45;14.80;99.90
19906;DHT22;10115;50.906;4.438;2022-11-03T10:49:47;14.90;99.90
19906;DHT22;10115;50.906;4.438;2022-11-03T10:52:24;14.90;99.90
19906;DHT22;10115;50.906;4.438;2022-11-03T10:54:52;14.90;99.90
19906;DHT22;10115;50.906;4.438;2022-11-03T10:57:20;15.00;99.90
19906;DHT22;10115;50.906;4.438;2022-11-03T10:59:48;15.20;99.90
19906;DHT22;10115;50.906;4.438;2022-11-03T11:02:24;15.20;99.90
19906;DHT22;10115;50.906;4.438;2022-11-03T11:05:01;15.30;99.90
19906;DHT22;10115;50.906;4.438;2022-11-03T11:07:39;15.20;99.90
19906;DHT22;10115;50.906;4.438;2022-11-03T11:10:20;15.20;99.90
19906;DHT22;10115;50.906;4.438;2022-11-03T11:15:48;15.30;99.90
19906;DHT22;10115;50.906;4.438;2022-11-03T11:20:52;15.40;99.90
19906;DHT22;10115;50.906;4.438;2022-11-03T11:28:31;15.80;99.90
19906;DHT22;10115;50.906;4.438;2022-11-03T11:30:57;15.80;99.90
19906;DHT22;10115;50.906;4.438;2022-11-03T11:33:26;15.70;99.90
19906;DHT22;10115;50.906;4.438;2022-11-03T11:41:20;16.00;99.90
19906;DHT22;10115;50.906;4.438;2022-11-03T11:43:45;16.00;99.90
19906;DHT22;10115;50.906;4.438;2022-11-03T11:46:37;16.20;99.90
19906;DHT22;10115;50.906;4.438;2022-11-03T11:51:33;16.50;99.90
19906;DHT22;10115;50.906;4.438;2022-11-03T11:54:03;16.50;99.90
19906;DHT22;10115;50.906;4.438;2022-11-03T11:56:31;16.60;99.90
19906;DHT22;10115;50.906;4.438;2022-11-03T11:58:57;16.70;99.90
19906;DHT22;10115;50.906;4.438;2022-11-03T12:01:23;16.70;99.90
19906;DHT22;10115;50.906;4.438;2022-11-03T12:03:51;16.60;99.90
19906;DHT22;10115;50.906;4.438;2022-11-03T12:06:31;16.60;99.90
19906;DHT22;10115;50.906;4.438;2022-11-03T12:09:17;16.70;99.90
19906;DHT22;10115;50.906;4.438;2022-11-03T12:11:54;16.50;99.90
19906;DHT22;10115;50.906;4.438;2022-11-03T12:14:37;16.60;99.90
19906;DHT22;10115;50.906;4.438;2022-11-03T12:19:43;16.40;99.90
19906;DHT22;10115;50.906;4.438;2022-11-03T12:22:11;16.40;99.90
19906;DHT22;10115;50.906;4.438;2022-11-03T12:25:03;16.20;99.90
19906;DHT22;10115;50.906;4.438;2022-11-03T12:30:07;16.00;99.90
19906;DHT22;10115;50.906;4.438;2022-11-03T12:32:36;15.90;99.90
19906;DHT22;10115;50.906;4.438;2022-11-03T12:35:03;15.80;99.90
19906;DHT22;10115;50.906;4.438;2022-11-03T12:37:28;15.70;99.90
19906;DHT22;10115;50.906;4.438;2022-11-03T12:39:54;15.60;99.90
19906;DHT22;10115;50.906;4.438;2022-11-03T12:42:20;15.30;99.90
19906;DHT22;10115;50.906;4.438;2022-11-03T12:44:46;15.20;99.90
19906;DHT22;10115;50.906;4.438;2022-11-03T12:47:12;15.20;99.90
19906;DHT22;10115;50.906;4.438;2022-11-03T12:49:38;14.90;99.90
19906;DHT22;10115;50.906;4.438;2022-11-03T12:52:03;14.80;99.90
19906;DHT22;10115;50.906;4.438;2022-11-03T12:54:32;14.70;99.90
19906;DHT22;10115;50.906;4.438;2022-11-03T12:56:58;14.60;99.90
19906;DHT22;10115;50.906;4.438;2022-11-03T12:59:24;14.40;99.90
19906;DHT22;10115;50.906;4.438;2022-11-03T13:01:50;14.30;99.90
19906;DHT22;10115;50.906;4.438;2022-11-03T13:04:15;14.10;99.90
19906;DHT22;10115;50.906;4.438;2022-11-03T13:06:41;14.10;99.90
19906;DHT22;10115;50.906;4.438;2022-11-03T13:09:07;14.10;99.90
19906;DHT22;10115;50.906;4.438;2022-11-03T13:11:32;14.20;99.90
19906;DHT22;10115;50.906;4.438;2022-11-03T13:14:17;14.20;99.90
19906;DHT22;10115;50.906;4.438;2022-11-03T13:16:42;14.10;99.90
19906;DHT22;10115;50.906;4.438;2022-11-03T13:19:08;14.00;99.90
19906;DHT22;10115;50.906;4.438;2022-11-03T13:21:35;14.10;99.90
19906;DHT22;10115;50.906;4.438;2022-11-03T13:24:01;13.90;99.90
19906;DHT22;10115;50.906;4.438;2022-11-03T13:26:26;14.00;99.90
19906;DHT22;10115;50.906;4.438;2022-11-03T13:28:52;13.90;99.90
19906;DHT22;10115;50.906;4.438;2022-11-03T13:31:18;14.00;99.90
19906;DHT22;10115;50.906;4.438;2022-11-03T13:33:43;14.00;99.90
19906;DHT22;10115;50.906;4.438;2022-11-03T13:36:09;14.00;99.90
19906;DHT22;10115;50.906;4.438;2022-11-03T13:38:34;13.80;99.90
19906;DHT22;10115;50.906;4.438;2022-11-03T13:41:00;13.90;99.90
19906;DHT22;10115;50.906;4.438;2022-11-03T13:43:26;13.80;99.90
19906;DHT22;10115;50.906;4.438;2022-11-03T13:45:52;13.70;99.90
19906;DHT22;10115;50.906;4.438;2022-11-03T13:48:18;13.80;99.90
19906;DHT22;10115;50.906;4.438;2022-11-03T13:50:44;13.90;99.90
19906;DHT22;10115;50.906;4.438;2022-11-03T13:53:10;13.90;99.90
19906;DHT22;10115;50.906;4.438;2022-11-03T13:55:36;13.90;99.90
19906;DHT22;10115;50.906;4.438;2022-11-03T13:58:01;13.90;99.90
19906;DHT22;10115;50.906;4.438;2022-11-03T14:00:27;14.00;99.90
19906;DHT22;10115;50.906;4.438;2022-11-03T14:02:53;13.90;99.90
19906;DHT22;10115;50.906;4.438;2022-11-03T14:05:18;13.80;99.90
19906;DHT22;10115;50.906;4.438;2022-11-03T14:07:44;13.80;99.90
19906;DHT22;10115;50.906;4.438;2022-11-03T14:10:10;13.70;99.90
19906;DHT22;10115;50.906;4.438;2022-11-03T14:12:35;13.70;99.90
19906;DHT22;10115;50.906;4.438;2022-11-03T14:15:04;13.70;99.90
19906;DHT22;10115;50.906;4.438;2022-11-03T14:17:31;13.60;99.90
19906;DHT22;10115;50.906;4.438;2022-11-03T14:19:57;13.80;99.90
19906;DHT22;10115;50.906;4.438;2022-11-03T14:22:23;13.70;99.90
19906;DHT22;10115;50.906;4.438;2022-11-03T14:24:50;13.70;99.90
19906;DHT22;10115;50.906;4.438;2022-11-03T14:27:17;13.70;99.90
19906;DHT22;10115;50.906;4.438;2022-11-03T14:29:43;13.80;99.90
19906;DHT22;10115;50.906;4.438;2022-11-03T14:32:10;13.90;99.90
19906;DHT22;10115;50.906;4.438;2022-11-03T14:34:36;13.80;99.90
19906;DHT22;10115;50.906;4.438;2022-11-03T14:37:05;13.70;99.90
19906;DHT22;10115;50.906;4.438;2022-11-03T14:39:33;13.70;99.90
19906;DHT22;10115;50.906;4.438;2022-11-03T14:41:59;13.60;99.90
19906;DHT22;10115;50.906;4.438;2022-11-03T14:44:35;13.70;99.90
19906;DHT22;10115;50.906;4.438;2022-11-03T14:47:02;13.70;99.90
19906;DHT22;10115;50.906;4.438;2022-11-03T14:49:29;13.60;99.90
19906;DHT22;10115;50.906;4.438;2022-11-03T14:51:56;13.60;99.90
19906;DHT22;10115;50.906;4.438;2022-11-03T14:54:22;13.70;99.90
19906;DHT22;10115;50.906;4.438;2022-11-03T14:56:48;13.60;99.90
19906;DHT22;10115;50.906;4.438;2022-11-03T14:59:14;13.60;99.90
19906;DHT22;10115;50.906;4.438;2022-11-03T15:01:40;13.60;99.90
19906;DHT22;10115;50.906;4.438;2022-11-03T15:04:05;13.50;99.90
19906;DHT22;10115;50.906;4.438;2022-11-03T15:06:33;13.70;99.90
19906;DHT22;10115;50.906;4.438;2022-11-03T15:08:59;13.90;99.90
19906;DHT22;10115;50.906;4.438;2022-11-03T15:11:24;13.80;99.90
19906;DHT22;10115;50.906;4.438;2022-11-03T15:13:51;13.90;99.90
19906;DHT22;10115;50.906;4.438;2022-11-03T15:16:16;14.00;99.90
19906;DHT22;10115;50.906;4.438;2022-11-03T15:18:42;14.10;99.90
19906;DHT22;10115;50.906;4.438;2022-11-03T15:21:09;14.00;99.90
19906;DHT22;10115;50.906;4.438;2022-11-03T15:23:35;14.10;99.90
19906;DHT22;10115;50.906;4.438;2022-11-03T15:26:01;13.90;99.90
19906;DHT22;10115;50.906;4.438;2022-11-03T15:28:27;13.80;99.90
19906;DHT22;10115;50.906;4.438;2022-11-03T15:30:52;13.60;99.90
19906;DHT22;10115;50.906;4.438;2022-11-03T15:33:18;13.50;99.90
19906;DHT22;10115;50.906;4.438;2022-11-03T15:35:44;13.50;99.90
19906;DHT22;10115;50.906;4.438;2022-11-03T15:38:10;13.40;99.90
19906;DHT22;10115;50.906;4.438;2022-11-03T15:40:36;13.30;99.90
19906;DHT22;10115;50.906;4.438;2022-11-03T15:43:01;13.40;99.90
19906;DHT22;10115;50.906;4.438;2022-11-03T15:45:27;13.30;99.90
19906;DHT22;10115;50.906;4.438;2022-11-03T15:47:53;13.30;99.90
19906;DHT22;10115;50.906;4.438;2022-11-03T15:50:18;13.20;99.90
19906;DHT22;10115;50.906;4.438;2022-11-03T15:52:44;13.00;99.90
19906;DHT22;10115;50.906;4.438;2022-11-03T15:55:10;13.10;99.90
19906;DHT22;10115;50.906;4.438;2022-11-03T15:57:36;13.00;99.90
19906;DHT22;10115;50.906;4.438;2022-11-03T16:00:03;13.00;99.90
19906;DHT22;10115;50.906;4.438;2022-11-03T16:02:31;12.90;99.90
19906;DHT22;10115;50.906;4.438;2022-11-03T16:04:57;12.90;99.90
19906;DHT22;10115;50.906;4.438;2022-11-03T16:07:23;12.80;99.90
19906;DHT22;10115;50.906;4.438;2022-11-03T16:09:49;12.90;99.90
19906;DHT22;10115;50.906;4.438;2022-11-03T16:12:14;12.80;99.90
19906;DHT22;10115;50.906;4.438;2022-11-03T16:14:40;12.80;99.90
19906;DHT22;10115;50.906;4.438;2022-11-03T16:17:06;12.80;99.90
19906;DHT22;10115;50.906;4.438;2022-11-03T16:19:31;12.70;99.90
19906;DHT22;10115;50.906;4.438;2022-11-03T16:21:57;12.70;99.90
19906;DHT22;10115;50.906;4.438;2022-11-03T16:24:23;12.60;99.90
19906;DHT22;10115;50.906;4.438;2022-11-03T16:26:48;12.50;99.90
19906;DHT22;10115;50.906;4.438;2022-11-03T16:29:15;12.50;99.90
19906;DHT22;10115;50.906;4.438;2022-11-03T16:31:41;12.50;99.90
19906;DHT22;10115;50.906;4.438;2022-11-03T16:34:07;12.50;99.90
19906;DHT22;10115;50.906;4.438;2022-11-03T16:36:33;12.50;99.90